sensor_id;sensor_type;location;lat;lon;timestamp;P1;durP1;ratioP1;P2;durP2;ratioP2
11854;SDS011;5987;53.140;8.904;2022-09-09T00:02:21;21.77;;;15.37;;
11854;SDS011;5987;53.140;8.904;2022-09-09T00:05:31;19.00;;;14.77;;
11854;SDS011;5987;53.140;8.904;2022-09-09T00:08:49;18.53;;;13.90;;
11854;SDS011;5987;53.140;8.904;2022-09-09T00:12:08;13.80;;;12.03;;
11854;SDS011;5987;53.140;8.904;2022-09-09T00:15:21;13.97;;;11.40;;
11854;SDS011;5987;53.140;8.904;2022-09-09T00:18:31;13.37;;;10.60;;
11854;SDS011;5987;53.140;8.904;2022-09-09T00:21:59;16.30;;;11.57;;
11854;SDS011;5987;53.140;8.904;2022-09-09T00:25:19;21.37;;;13.80;;
11854;SDS011;5987;53.140;8.904;2022-09-09T00:28:38;15.20;;;12.73;;
11854;SDS011;5987;53.140;8.904;2022-09-09T00:31:50;18.33;;;13.73;;
11854;SDS011;5987;53.140;8.904;2022-09-09T00:35:13;18.93;;;13.97;;
11854;SDS011;5987;53.140;8.904;2022-09-09T00:38:25;21.37;;;14.53;;
11854;SDS011;5987;53.140;8.904;2022-09-09T00:41:40;23.50;;;15.67;;
11854;SDS011;5987;53.140;8.904;2022-09-09T00:45:08;23.33;;;15.07;;
11854;SDS011;5987;53.140;8.904;2022-09-09T00:48:38;23.57;;;14.17;;
11854;SDS011;5987;53.140;8.904;2022-09-09T00:51:59;22.53;;;15.00;;
11854;SDS011;5987;53.140;8.904;2022-09-09T00:55:19;22.63;;;15.67;;
11854;SDS011;5987;53.140;8.904;2022-09-09T00:58:31;21.93;;;15.27;;
11854;SDS011;5987;53.140;8.904;2022-09-09T01:01:36;22.50;;;15.13;;
11854;SDS011;5987;53.140;8.904;2022-09-09T01:04:41;24.87;;;16.27;;
11854;SDS011;5987;53.140;8.904;2022-09-09T01:07:46;20.43;;;14.90;;
11854;SDS011;5987;53.140;8.904;2022-09-09T01:10:58;18.77;;;14.40;;
11854;SDS011;5987;53.140;8.904;2022-09-09T01:14:09;22.07;;;15.50;;
11854;SDS011;5987;53.140;8.904;2022-09-09T01:17:28;26.30;;;17.70;;
11854;SDS011;5987;53.140;8.904;2022-09-09T01:20:39;30.10;;;17.73;;
11854;SDS011;5987;53.140;8.904;2022-09-09T01:24:03;25.00;;;18.27;;
11854;SDS011;5987;53.140;8.904;2022-09-09T01:27:24;27.43;;;19.33;;
11854;SDS011;5987;53.140;8.904;2022-09-09T01:30:28;27.73;;;19.33;;
11854;SDS011;5987;53.140;8.904;2022-09-09T01:33:33;26.50;;;18.80;;
11854;SDS011;5987;53.140;8.904;2022-09-09T01:36:38;28.63;;;19.33;;
11854;SDS011;5987;53.140;8.904;2022-09-09T01:39:49;27.07;;;19.00;;
11854;SDS011;5987;53.140;8.904;2022-09-09T01:42:54;28.30;;;19.23;;
11854;SDS011;5987;53.140;8.904;2022-09-09T01:45:59;29.90;;;20.07;;
11854;SDS011;5987;53.140;8.904;2022-09-09T01:49:05;28.50;;;20.63;;
11854;SDS011;5987;53.140;8.904;2022-09-09T01:52:11;31.37;;;20.30;;
11854;SDS011;5987;53.140;8.904;2022-09-09T01:55:15;26.83;;;19.57;;
11854;SDS011;5987;53.140;8.904;2022-09-09T01:58:27;30.50;;;19.90;;
11854;SDS011;5987;53.140;8.904;2022-09-09T02:01:45;31.80;;;20.37;;
11854;SDS011;5987;53.140;8.904;2022-09-09T02:05:10;27.67;;;18.37;;
11854;SDS011;5987;53.140;8.904;2022-09-09T02:08:29;28.03;;;18.63;;
11854;SDS011;5987;53.140;8.904;2022-09-09T02:11:41;28.37;;;18.30;;
11854;SDS011;5987;53.140;8.904;2022-09-09T02:14:52;25.50;;;18.33;;
11854;SDS011;5987;53.140;8.904;2022-09-09T02:18:03;26.23;;;19.13;;
11854;SDS011;5987;53.140;8.904;2022-09-09T02:21:12;23.03;;;17.37;;
11854;SDS011;5987;53.140;8.904;2022-09-09T02:24:19;25.23;;;19.43;;
11854;SDS011;5987;53.140;8.904;2022-09-09T02:27:24;31.30;;;20.30;;
11854;SDS011;5987;53.140;8.904;2022-09-09T02:30:29;26.90;;;19.17;;
11854;SDS011;5987;53.140;8.904;2022-09-09T02:33:38;24.77;;;18.33;;
11854;SDS011;5987;53.140;8.904;2022-09-09T02:36:47;25.93;;;18.73;;
11854;SDS011;5987;53.140;8.904;2022-09-09T02:39:56;26.17;;;18.23;;
11854;SDS011;5987;53.140;8.904;2022-09-09T02:43:00;24.27;;;17.30;;
11854;SDS011;5987;53.140;8.904;2022-09-09T02:46:08;22.37;;;16.93;;
11854;SDS011;5987;53.140;8.904;2022-09-09T02:49:35;20.00;;;15.53;;
11854;SDS011;5987;53.140;8.904;2022-09-09T02:52:58;15.97;;;13.57;;
11854;SDS011;5987;53.140;8.904;2022-09-09T02:56:18;17.83;;;13.87;;
11854;SDS011;5987;53.140;8.904;2022-09-09T02:59:27;18.07;;;14.30;;
11854;SDS011;5987;53.140;8.904;2022-09-09T03:02:33;17.77;;;13.73;;
11854;SDS011;5987;53.140;8.904;2022-09-09T03:05:37;18.13;;;13.73;;
11854;SDS011;5987;53.140;8.904;2022-09-09T03:08:44;19.23;;;13.90;;
11854;SDS011;5987;53.140;8.904;2022-09-09T03:11:50;18.80;;;14.60;;
11854;SDS011;5987;53.140;8.904;2022-09-09T03:14:53;17.97;;;14.03;;
11854;SDS011;5987;53.140;8.904;2022-09-09T03:17:59;19.27;;;13.13;;
11854;SDS011;5987;53.140;8.904;2022-09-09T03:21:03;17.73;;;13.10;;
11854;SDS011;5987;53.140;8.904;2022-09-09T03:24:08;16.97;;;13.70;;
11854;SDS011;5987;53.140;8.904;2022-09-09T03:27:11;17.37;;;13.13;;
11854;SDS011;5987;53.140;8.904;2022-09-09T03:30:15;15.80;;;13.57;;
11854;SDS011;5987;53.140;8.904;2022-09-09T03:33:21;19.40;;;14.10;;
11854;SDS011;5987;53.140;8.904;2022-09-09T03:36:24;17.10;;;13.57;;
11854;SDS011;5987;53.140;8.904;2022-09-09T03:39:29;15.90;;;12.90;;
11854;SDS011;5987;53.140;8.904;2022-09-09T03:42:33;17.27;;;13.30;;
11854;SDS011;5987;53.140;8.904;2022-09-09T03:45:38;19.30;;;13.27;;
11854;SDS011;5987;53.140;8.904;2022-09-09T03:48:43;18.53;;;14.53;;
11854;SDS011;5987;53.140;8.904;2022-09-09T03:51:47;20.33;;;14.63;;
11854;SDS011;5987;53.140;8.904;2022-09-09T03:54:50;20.40;;;15.83;;
11854;SDS011;5987;53.140;8.904;2022-09-09T03:57:54;21.33;;;15.63;;
11854;SDS011;5987;53.140;8.904;2022-09-09T04:00:59;24.90;;;17.20;;
11854;SDS011;5987;53.140;8.904;2022-09-09T04:04:07;24.57;;;16.70;;
11854;SDS011;5987;53.140;8.904;2022-09-09T04:07:11;23.40;;;16.17;;
11854;SDS011;5987;53.140;8.904;2022-09-09T04:10:14;21.07;;;15.53;;
11854;SDS011;5987;53.140;8.904;2022-09-09T04:13:18;18.70;;;15.37;;
11854;SDS011;5987;53.140;8.904;2022-09-09T04:16:22;22.83;;;15.60;;
11854;SDS011;5987;53.140;8.904;2022-09-09T04:19:27;21.20;;;15.97;;
11854;SDS011;5987;53.140;8.904;2022-09-09T04:22:30;19.30;;;15.87;;
11854;SDS011;5987;53.140;8.904;2022-09-09T04:25:35;19.40;;;14.03;;
11854;SDS011;5987;53.140;8.904;2022-09-09T04:28:53;20.27;;;14.70;;
11854;SDS011;5987;53.140;8.904;2022-09-09T04:31:57;22.30;;;15.47;;
11854;SDS011;5987;53.140;8.904;2022-09-09T04:35:00;22.27;;;15.43;;
11854;SDS011;5987;53.140;8.904;2022-09-09T04:38:05;23.07;;;14.33;;
11854;SDS011;5987;53.140;8.904;2022-09-09T04:41:10;15.87;;;13.83;;
11854;SDS011;5987;53.140;8.904;2022-09-09T04:44:16;17.23;;;14.17;;
11854;SDS011;5987;53.140;8.904;2022-09-09T04:47:20;18.57;;;13.43;;
11854;SDS011;5987;53.140;8.904;2022-09-09T04:50:23;16.70;;;13.10;;
11854;SDS011;5987;53.140;8.904;2022-09-09T04:53:27;18.97;;;13.60;;
11854;SDS011;5987;53.140;8.904;2022-09-09T04:56:31;20.37;;;13.27;;
11854;SDS011;5987;53.140;8.904;2022-09-09T04:59:36;18.20;;;12.33;;
11854;SDS011;5987;53.140;8.904;2022-09-09T05:02:40;15.53;;;11.87;;
11854;SDS011;5987;53.140;8.904;2022-09-09T05:05:44;14.60;;;11.83;;
11854;SDS011;5987;53.140;8.904;2022-09-09T05:08:48;16.50;;;12.70;;
11854;SDS011;5987;53.140;8.904;2022-09-09T05:11:52;14.03;;;11.37;;
11854;SDS011;5987;53.140;8.904;2022-09-09T05:14:57;17.77;;;11.73;;
11854;SDS011;5987;53.140;8.904;2022-09-09T05:18:01;15.70;;;9.80;;
11854;SDS011;5987;53.140;8.904;2022-09-09T05:21:05;12.93;;;9.83;;
11854;SDS011;5987;53.140;8.904;2022-09-09T05:24:10;16.50;;;9.97;;
11854;SDS011;5987;53.140;8.904;2022-09-09T05:27:14;14.87;;;10.07;;
11854;SDS011;5987;53.140;8.904;2022-09-09T05:30:21;12.90;;;8.97;;
11854;SDS011;5987;53.140;8.904;2022-09-09T05:33:28;12.97;;;8.43;;
11854;SDS011;5987;53.140;8.904;2022-09-09T05:36:31;10.70;;;8.00;;
11854;SDS011;5987;53.140;8.904;2022-09-09T05:39:35;11.77;;;8.10;;
11854;SDS011;5987;53.140;8.904;2022-09-09T05:42:39;10.37;;;8.33;;
11854;SDS011;5987;53.140;8.904;2022-09-09T05:45:44;11.60;;;8.10;;
11854;SDS011;5987;53.140;8.904;2022-09-09T05:48:49;13.70;;;7.63;;
11854;SDS011;5987;53.140;8.904;2022-09-09T05:51:54;10.80;;;7.33;;
11854;SDS011;5987;53.140;8.904;2022-09-09T05:54:58;11.33;;;8.30;;
11854;SDS011;5987;53.140;8.904;2022-09-09T05:58:02;10.67;;;7.90;;
11854;SDS011;5987;53.140;8.904;2022-09-09T06:01:07;10.57;;;7.70;;
11854;SDS011;5987;53.140;8.904;2022-09-09T06:04:12;11.37;;;8.03;;
11854;SDS011;5987;53.140;8.904;2022-09-09T06:07:16;10.37;;;8.47;;
11854;SDS011;5987;53.140;8.904;2022-09-09T06:10:20;11.00;;;7.67;;
11854;SDS011;5987;53.140;8.904;2022-09-09T06:13:24;12.87;;;8.10;;
11854;SDS011;5987;53.140;8.904;2022-09-09T06:16:30;9.13;;;7.50;;
11854;SDS011;5987;53.140;8.904;2022-09-09T06:19:35;9.53;;;7.60;;
11854;SDS011;5987;53.140;8.904;2022-09-09T06:22:39;13.10;;;7.83;;
11854;SDS011;5987;53.140;8.904;2022-09-09T06:25:43;12.33;;;7.43;;
11854;SDS011;5987;53.140;8.904;2022-09-09T06:28:48;12.00;;;7.67;;
11854;SDS011;5987;53.140;8.904;2022-09-09T06:31:55;10.63;;;7.70;;
11854;SDS011;5987;53.140;8.904;2022-09-09T06:34:59;10.70;;;7.33;;
11854;SDS011;5987;53.140;8.904;2022-09-09T06:38:04;11.77;;;8.00;;
11854;SDS011;5987;53.140;8.904;2022-09-09T06:41:08;10.00;;;7.70;;
11854;SDS011;5987;53.140;8.904;2022-09-09T06:44:13;12.67;;;7.03;;
11854;SDS011;5987;53.140;8.904;2022-09-09T06:47:19;9.77;;;7.10;;
11854;SDS011;5987;53.140;8.904;2022-09-09T06:50:23;8.20;;;7.17;;
11854;SDS011;5987;53.140;8.904;2022-09-09T06:53:27;9.47;;;7.23;;
11854;SDS011;5987;53.140;8.904;2022-09-09T06:56:31;11.20;;;6.73;;
11854;SDS011;5987;53.140;8.904;2022-09-09T06:59:37;9.47;;;7.93;;
11854;SDS011;5987;53.140;8.904;2022-09-09T07:02:42;8.40;;;7.10;;
11854;SDS011;5987;53.140;8.904;2022-09-09T07:05:53;7.43;;;6.73;;
11854;SDS011;5987;53.140;8.904;2022-09-09T07:08:58;9.43;;;6.93;;
11854;SDS011;5987;53.140;8.904;2022-09-09T07:12:06;11.23;;;6.40;;
11854;SDS011;5987;53.140;8.904;2022-09-09T07:15:21;10.70;;;6.53;;
11854;SDS011;5987;53.140;8.904;2022-09-09T07:18:26;10.87;;;6.63;;
11854;SDS011;5987;53.140;8.904;2022-09-09T07:21:30;11.57;;;6.57;;
11854;SDS011;5987;53.140;8.904;2022-09-09T07:24:35;9.83;;;6.73;;
11854;SDS011;5987;53.140;8.904;2022-09-09T07:27:39;8.13;;;6.17;;
11854;SDS011;5987;53.140;8.904;2022-09-09T07:30:43;9.07;;;6.77;;
11854;SDS011;5987;53.140;8.904;2022-09-09T07:33:49;9.63;;;5.10;;
11854;SDS011;5987;53.140;8.904;2022-09-09T07:36:53;6.63;;;4.50;;
11854;SDS011;5987;53.140;8.904;2022-09-09T07:39:58;7.93;;;4.50;;
11854;SDS011;5987;53.140;8.904;2022-09-09T07:43:05;8.40;;;4.40;;
11854;SDS011;5987;53.140;8.904;2022-09-09T07:46:10;9.43;;;4.33;;
11854;SDS011;5987;53.140;8.904;2022-09-09T07:49:17;6.73;;;4.07;;
11854;SDS011;5987;53.140;8.904;2022-09-09T07:52:29;7.70;;;3.67;;
11854;SDS011;5987;53.140;8.904;2022-09-09T07:55:32;7.07;;;3.90;;
11854;SDS011;5987;53.140;8.904;2022-09-09T07:58:36;6.03;;;4.07;;
11854;SDS011;5987;53.140;8.904;2022-09-09T08:01:41;7.00;;;4.50;;
11854;SDS011;5987;53.140;8.904;2022-09-09T08:04:48;7.23;;;3.70;;
11854;SDS011;5987;53.140;8.904;2022-09-09T08:07:53;5.67;;;3.53;;
11854;SDS011;5987;53.140;8.904;2022-09-09T08:11:05;6.83;;;3.37;;
11854;SDS011;5987;53.140;8.904;2022-09-09T08:14:12;6.80;;;3.73;;
11854;SDS011;5987;53.140;8.904;2022-09-09T08:17:16;4.50;;;3.97;;
11854;SDS011;5987;53.140;8.904;2022-09-09T08:20:21;5.13;;;3.67;;
11854;SDS011;5987;53.140;8.904;2022-09-09T08:23:25;3.40;;;3.10;;
11854;SDS011;5987;53.140;8.904;2022-09-09T08:26:29;6.33;;;3.67;;
11854;SDS011;5987;53.140;8.904;2022-09-09T08:29:36;4.47;;;3.80;;
11854;SDS011;5987;53.140;8.904;2022-09-09T08:32:40;4.43;;;3.50;;
11854;SDS011;5987;53.140;8.904;2022-09-09T08:35:50;7.10;;;3.30;;
11854;SDS011;5987;53.140;8.904;2022-09-09T08:38:55;5.47;;;2.80;;
11854;SDS011;5987;53.140;8.904;2022-09-09T08:42:06;3.53;;;2.63;;
11854;SDS011;5987;53.140;8.904;2022-09-09T08:45:41;3.47;;;2.50;;
11854;SDS011;5987;53.140;8.904;2022-09-09T08:49:00;6.07;;;2.63;;
11854;SDS011;5987;53.140;8.904;2022-09-09T08:52:19;3.40;;;2.17;;
11854;SDS011;5987;53.140;8.904;2022-09-09T08:55:34;4.30;;;2.03;;
11854;SDS011;5987;53.140;8.904;2022-09-09T08:58:47;6.17;;;2.70;;
11854;SDS011;5987;53.140;8.904;2022-09-09T09:01:58;3.27;;;2.13;;
11854;SDS011;5987;53.140;8.904;2022-09-09T09:05:18;3.37;;;2.47;;
11854;SDS011;5987;53.140;8.904;2022-09-09T09:08:38;5.53;;;2.57;;
11854;SDS011;5987;53.140;8.904;2022-09-09T09:11:51;3.47;;;2.10;;
11854;SDS011;5987;53.140;8.904;2022-09-09T09:15:05;2.67;;;1.87;;
11854;SDS011;5987;53.140;8.904;2022-09-09T09:18:21;5.47;;;2.30;;
11854;SDS011;5987;53.140;8.904;2022-09-09T09:21:26;5.83;;;2.57;;
11854;SDS011;5987;53.140;8.904;2022-09-09T09:24:43;3.70;;;1.90;;
11854;SDS011;5987;53.140;8.904;2022-09-09T09:27:57;2.87;;;2.10;;
11854;SDS011;5987;53.140;8.904;2022-09-09T09:31:03;3.73;;;2.10;;
11854;SDS011;5987;53.140;8.904;2022-09-09T09:34:09;2.47;;;1.90;;
11854;SDS011;5987;53.140;8.904;2022-09-09T09:37:26;4.23;;;1.87;;
11854;SDS011;5987;53.140;8.904;2022-09-09T09:41:29;4.53;;;1.50;;
11854;SDS011;5987;53.140;8.904;2022-09-09T09:44:43;4.70;;;1.87;;
11854;SDS011;5987;53.140;8.904;2022-09-09T09:47:57;3.07;;;1.87;;
11854;SDS011;5987;53.140;8.904;2022-09-09T09:51:08;4.87;;;1.93;;
11854;SDS011;5987;53.140;8.904;2022-09-09T09:54:18;3.10;;;1.90;;
11854;SDS011;5987;53.140;8.904;2022-09-09T09:57:32;4.67;;;2.30;;
11854;SDS011;5987;53.140;8.904;2022-09-09T10:00:38;4.10;;;1.73;;
11854;SDS011;5987;53.140;8.904;2022-09-09T10:03:52;2.63;;;1.70;;
11854;SDS011;5987;53.140;8.904;2022-09-09T10:06:57;7.43;;;2.10;;
11854;SDS011;5987;53.140;8.904;2022-09-09T10:10:01;3.43;;;2.00;;
11854;SDS011;5987;53.140;8.904;2022-09-09T10:13:08;3.50;;;1.73;;
11854;SDS011;5987;53.140;8.904;2022-09-09T10:16:25;4.70;;;1.97;;
11854;SDS011;5987;53.140;8.904;2022-09-09T10:19:50;4.80;;;2.27;;
11854;SDS011;5987;53.140;8.904;2022-09-09T10:23:24;4.70;;;2.37;;
11854;SDS011;5987;53.140;8.904;2022-09-09T10:26:48;7.40;;;2.87;;
11854;SDS011;5987;53.140;8.904;2022-09-09T10:30:12;5.90;;;2.87;;
11854;SDS011;5987;53.140;8.904;2022-09-09T10:33:21;4.67;;;2.60;;
11854;SDS011;5987;53.140;8.904;2022-09-09T10:36:35;4.67;;;2.80;;
11854;SDS011;5987;53.140;8.904;2022-09-09T10:39:50;4.63;;;2.67;;
11854;SDS011;5987;53.140;8.904;2022-09-09T10:43:11;6.23;;;3.07;;
11854;SDS011;5987;53.140;8.904;2022-09-09T10:46:31;6.77;;;2.90;;
11854;SDS011;5987;53.140;8.904;2022-09-09T10:50:03;6.63;;;3.30;;
11854;SDS011;5987;53.140;8.904;2022-09-09T10:53:52;5.17;;;3.10;;
11854;SDS011;5987;53.140;8.904;2022-09-09T10:57:13;4.27;;;2.83;;
11854;SDS011;5987;53.140;8.904;2022-09-09T11:00:36;5.93;;;2.80;;
11854;SDS011;5987;53.140;8.904;2022-09-09T11:03:47;5.40;;;2.90;;
11854;SDS011;5987;53.140;8.904;2022-09-09T11:07:00;5.03;;;2.60;;
11854;SDS011;5987;53.140;8.904;2022-09-09T11:10:16;6.33;;;2.73;;
11854;SDS011;5987;53.140;8.904;2022-09-09T11:13:28;5.37;;;3.10;;
11854;SDS011;5987;53.140;8.904;2022-09-09T11:16:40;3.13;;;2.70;;
11854;SDS011;5987;53.140;8.904;2022-09-09T11:19:52;4.07;;;2.73;;
11854;SDS011;5987;53.140;8.904;2022-09-09T11:22:57;3.00;;;2.10;;
11854;SDS011;5987;53.140;8.904;2022-09-09T11:26:08;6.60;;;2.53;;
11854;SDS011;5987;53.140;8.904;2022-09-09T11:37:33;5.10;;;2.30;;
11854;SDS011;5987;53.140;8.904;2022-09-09T11:40:55;6.07;;;2.60;;
11854;SDS011;5987;53.140;8.904;2022-09-09T11:44:08;3.93;;;2.60;;
11854;SDS011;5987;53.140;8.904;2022-09-09T11:47:16;6.47;;;2.40;;
11854;SDS011;5987;53.140;8.904;2022-09-09T11:50:34;7.03;;;2.40;;
11854;SDS011;5987;53.140;8.904;2022-09-09T11:57:04;5.03;;;2.20;;
11854;SDS011;5987;53.140;8.904;2022-09-09T12:00:28;6.33;;;2.33;;
11854;SDS011;5987;53.140;8.904;2022-09-09T12:03:40;3.40;;;2.27;;
11854;SDS011;5987;53.140;8.904;2022-09-09T12:06:50;4.70;;;2.33;;
11854;SDS011;5987;53.140;8.904;2022-09-09T12:09:59;2.43;;;2.20;;
11854;SDS011;5987;53.140;8.904;2022-09-09T12:13:22;4.00;;;2.40;;
11854;SDS011;5987;53.140;8.904;2022-09-09T12:16:31;8.83;;;2.97;;
11854;SDS011;5987;53.140;8.904;2022-09-09T12:19:37;5.40;;;2.97;;
11854;SDS011;5987;53.140;8.904;2022-09-09T12:22:43;6.23;;;3.00;;
11854;SDS011;5987;53.140;8.904;2022-09-09T12:26:20;4.90;;;3.37;;
11854;SDS011;5987;53.140;8.904;2022-09-09T12:29:36;6.53;;;4.00;;
11854;SDS011;5987;53.140;8.904;2022-09-09T12:32:58;8.00;;;4.73;;
11854;SDS011;5987;53.140;8.904;2022-09-09T12:36:11;5.90;;;4.07;;
11854;SDS011;5987;53.140;8.904;2022-09-09T12:39:27;8.13;;;4.00;;
11854;SDS011;5987;53.140;8.904;2022-09-09T12:42:40;6.43;;;4.20;;
11854;SDS011;5987;53.140;8.904;2022-09-09T12:45:44;5.50;;;4.07;;
11854;SDS011;5987;53.140;8.904;2022-09-09T12:48:49;6.20;;;4.63;;
11854;SDS011;5987;53.140;8.904;2022-09-09T12:51:52;7.13;;;4.77;;
11854;SDS011;5987;53.140;8.904;2022-09-09T12:54:58;8.83;;;4.80;;
11854;SDS011;5987;53.140;8.904;2022-09-09T12:58:11;6.27;;;4.63;;
11854;SDS011;5987;53.140;8.904;2022-09-09T13:01:21;6.03;;;4.37;;
11854;SDS011;5987;53.140;8.904;2022-09-09T13:04:27;6.93;;;5.93;;
11854;SDS011;5987;53.140;8.904;2022-09-09T13:07:30;10.20;;;7.33;;
11854;SDS011;5987;53.140;8.904;2022-09-09T13:10:35;20.03;;;15.07;;
11854;SDS011;5987;53.140;8.904;2022-09-09T13:13:59;16.57;;;14.10;;
11854;SDS011;5987;53.140;8.904;2022-09-09T13:17:04;30.87;;;25.53;;
11854;SDS011;5987;53.140;8.904;2022-09-09T13:20:16;16.80;;;12.03;;
11854;SDS011;5987;53.140;8.904;2022-09-09T13:23:20;11.20;;;8.40;;
11854;SDS011;5987;53.140;8.904;2022-09-09T13:26:29;8.53;;;5.27;;
11854;SDS011;5987;53.140;8.904;2022-09-09T13:29:34;5.90;;;4.50;;
11854;SDS011;5987;53.140;8.904;2022-09-09T13:32:41;9.83;;;4.90;;
11854;SDS011;5987;53.140;8.904;2022-09-09T13:35:45;6.93;;;3.53;;
11854;SDS011;5987;53.140;8.904;2022-09-09T13:38:53;5.57;;;3.60;;
11854;SDS011;5987;53.140;8.904;2022-09-09T13:42:01;6.67;;;3.80;;
11854;SDS011;5987;53.140;8.904;2022-09-09T13:45:16;7.43;;;4.83;;
11854;SDS011;5987;53.140;8.904;2022-09-09T13:48:23;5.47;;;3.30;;
11854;SDS011;5987;53.140;8.904;2022-09-09T13:51:30;4.47;;;3.20;;
11854;SDS011;5987;53.140;8.904;2022-09-09T13:54:38;4.33;;;3.40;;
11854;SDS011;5987;53.140;8.904;2022-09-09T13:57:50;7.67;;;3.80;;
11854;SDS011;5987;53.140;8.904;2022-09-09T14:00:56;5.53;;;3.00;;
11854;SDS011;5987;53.140;8.904;2022-09-09T14:03:59;3.73;;;2.63;;
11854;SDS011;5987;53.140;8.904;2022-09-09T14:07:03;3.77;;;3.00;;
11854;SDS011;5987;53.140;8.904;2022-09-09T14:10:07;4.87;;;2.90;;
11854;SDS011;5987;53.140;8.904;2022-09-09T14:13:11;4.73;;;2.70;;
11854;SDS011;5987;53.140;8.904;2022-09-09T14:16:18;4.43;;;2.60;;
11854;SDS011;5987;53.140;8.904;2022-09-09T14:19:23;4.37;;;2.67;;
11854;SDS011;5987;53.140;8.904;2022-09-09T14:22:26;5.20;;;2.60;;
11854;SDS011;5987;53.140;8.904;2022-09-09T14:25:30;3.77;;;2.00;;
11854;SDS011;5987;53.140;8.904;2022-09-09T14:28:35;5.43;;;2.43;;
11854;SDS011;5987;53.140;8.904;2022-09-09T14:31:57;3.10;;;2.43;;
11854;SDS011;5987;53.140;8.904;2022-09-09T14:35:02;6.87;;;2.40;;
11854;SDS011;5987;53.140;8.904;2022-09-09T14:38:07;4.27;;;3.17;;
11854;SDS011;5987;53.140;8.904;2022-09-09T14:41:17;4.23;;;3.73;;
11854;SDS011;5987;53.140;8.904;2022-09-09T14:44:24;7.67;;;3.17;;
11854;SDS011;5987;53.140;8.904;2022-09-09T14:47:29;4.30;;;3.43;;
11854;SDS011;5987;53.140;8.904;2022-09-09T14:50:32;4.47;;;4.07;;
11854;SDS011;5987;53.140;8.904;2022-09-09T14:53:41;7.93;;;3.97;;
11854;SDS011;5987;53.140;8.904;2022-09-09T14:56:46;6.30;;;4.07;;
11854;SDS011;5987;53.140;8.904;2022-09-09T14:59:50;7.60;;;4.03;;
11854;SDS011;5987;53.140;8.904;2022-09-09T15:02:56;8.67;;;5.47;;
11854;SDS011;5987;53.140;8.904;2022-09-09T15:06:04;7.60;;;4.27;;
11854;SDS011;5987;53.140;8.904;2022-09-09T15:09:10;7.33;;;4.73;;
11854;SDS011;5987;53.140;8.904;2022-09-09T15:12:14;7.37;;;6.20;;
11854;SDS011;5987;53.140;8.904;2022-09-09T15:15:20;7.70;;;6.10;;
11854;SDS011;5987;53.140;8.904;2022-09-09T15:18:25;7.40;;;6.37;;
11854;SDS011;5987;53.140;8.904;2022-09-09T15:21:29;8.50;;;7.63;;
11854;SDS011;5987;53.140;8.904;2022-09-09T15:24:35;9.97;;;8.03;;
11854;SDS011;5987;53.140;8.904;2022-09-09T15:27:39;9.80;;;7.60;;
11854;SDS011;5987;53.140;8.904;2022-09-09T15:30:43;6.83;;;6.23;;
11854;SDS011;5987;53.140;8.904;2022-09-09T15:33:48;6.97;;;5.90;;
11854;SDS011;5987;53.140;8.904;2022-09-09T15:36:53;6.27;;;5.53;;
11854;SDS011;5987;53.140;8.904;2022-09-09T15:39:57;7.57;;;5.40;;
11854;SDS011;5987;53.140;8.904;2022-09-09T15:43:02;6.70;;;6.10;;
11854;SDS011;5987;53.140;8.904;2022-09-09T15:46:19;7.70;;;6.97;;
11854;SDS011;5987;53.140;8.904;2022-09-09T15:49:30;10.33;;;8.53;;
11854;SDS011;5987;53.140;8.904;2022-09-09T15:52:33;12.03;;;10.57;;
11854;SDS011;5987;53.140;8.904;2022-09-09T15:55:37;12.67;;;11.57;;
11854;SDS011;5987;53.140;8.904;2022-09-09T15:58:41;13.10;;;11.87;;
11854;SDS011;5987;53.140;8.904;2022-09-09T16:01:45;12.53;;;11.23;;
11854;SDS011;5987;53.140;8.904;2022-09-09T16:04:50;12.10;;;10.87;;
11854;SDS011;5987;53.140;8.904;2022-09-09T16:07:54;11.67;;;10.23;;
11854;SDS011;5987;53.140;8.904;2022-09-09T16:11:03;9.63;;;8.63;;
11854;SDS011;5987;53.140;8.904;2022-09-09T16:14:12;11.10;;;9.83;;
11854;SDS011;5987;53.140;8.904;2022-09-09T16:17:17;12.43;;;9.93;;
11854;SDS011;5987;53.140;8.904;2022-09-09T16:20:23;11.83;;;10.73;;
11854;SDS011;5987;53.140;8.904;2022-09-09T16:23:27;12.50;;;10.90;;
11854;SDS011;5987;53.140;8.904;2022-09-09T16:26:32;11.67;;;10.50;;
11854;SDS011;5987;53.140;8.904;2022-09-09T16:29:38;12.77;;;10.90;;
11854;SDS011;5987;53.140;8.904;2022-09-09T16:32:41;12.13;;;10.93;;
11854;SDS011;5987;53.140;8.904;2022-09-09T16:35:46;12.27;;;10.90;;
11854;SDS011;5987;53.140;8.904;2022-09-09T16:38:51;21.17;;;16.70;;
11854;SDS011;5987;53.140;8.904;2022-09-09T16:41:56;11.90;;;10.20;;
11854;SDS011;5987;53.140;8.904;2022-09-09T16:45:00;13.73;;;9.00;;
11854;SDS011;5987;53.140;8.904;2022-09-09T16:48:04;12.47;;;10.10;;
11854;SDS011;5987;53.140;8.904;2022-09-09T16:51:12;13.10;;;11.70;;
11854;SDS011;5987;53.140;8.904;2022-09-09T16:54:18;16.93;;;15.33;;
11854;SDS011;5987;53.140;8.904;2022-09-09T16:57:23;20.63;;;18.63;;
11854;SDS011;5987;53.140;8.904;2022-09-09T17:00:27;16.80;;;14.90;;
11854;SDS011;5987;53.140;8.904;2022-09-09T17:03:31;12.90;;;11.30;;
11854;SDS011;5987;53.140;8.904;2022-09-09T17:06:36;39.83;;;35.87;;
11854;SDS011;5987;53.140;8.904;2022-09-09T17:09:40;34.90;;;31.37;;
11854;SDS011;5987;53.140;8.904;2022-09-09T17:12:44;22.77;;;20.03;;
11854;SDS011;5987;53.140;8.904;2022-09-09T17:15:48;11.97;;;10.77;;
11854;SDS011;5987;53.140;8.904;2022-09-09T17:18:51;12.77;;;9.93;;
11854;SDS011;5987;53.140;8.904;2022-09-09T17:21:57;36.87;;;32.77;;
11854;SDS011;5987;53.140;8.904;2022-09-09T17:25:17;13.03;;;7.70;;
11854;SDS011;5987;53.140;8.904;2022-09-09T17:28:21;7.93;;;5.27;;
11854;SDS011;5987;53.140;8.904;2022-09-09T17:31:28;7.87;;;4.60;;
11854;SDS011;5987;53.140;8.904;2022-09-09T17:34:34;4.97;;;3.87;;
11854;SDS011;5987;53.140;8.904;2022-09-09T17:37:39;5.27;;;3.90;;
11854;SDS011;5987;53.140;8.904;2022-09-09T17:40:43;11.67;;;4.53;;
11854;SDS011;5987;53.140;8.904;2022-09-09T17:43:47;7.83;;;4.53;;
11854;SDS011;5987;53.140;8.904;2022-09-09T17:46:51;7.13;;;4.17;;
11854;SDS011;5987;53.140;8.904;2022-09-09T17:49:56;6.87;;;4.60;;
11854;SDS011;5987;53.140;8.904;2022-09-09T17:53:01;15.53;;;11.37;;
11854;SDS011;5987;53.140;8.904;2022-09-09T17:56:05;12.97;;;11.13;;
11854;SDS011;5987;53.140;8.904;2022-09-09T17:59:12;9.27;;;7.13;;
11854;SDS011;5987;53.140;8.904;2022-09-09T18:02:18;6.17;;;5.17;;
11854;SDS011;5987;53.140;8.904;2022-09-09T18:05:22;8.67;;;6.10;;
11854;SDS011;5987;53.140;8.904;2022-09-09T18:08:27;6.10;;;4.70;;
11854;SDS011;5987;53.140;8.904;2022-09-09T18:11:37;4.93;;;4.40;;
11854;SDS011;5987;53.140;8.904;2022-09-09T18:14:44;8.03;;;6.77;;
11854;SDS011;5987;53.140;8.904;2022-09-09T18:17:48;7.63;;;5.60;;
11854;SDS011;5987;53.140;8.904;2022-09-09T18:20:58;7.93;;;5.50;;
11854;SDS011;5987;53.140;8.904;2022-09-09T18:24:08;7.53;;;4.47;;
11854;SDS011;5987;53.140;8.904;2022-09-09T18:27:14;8.93;;;6.23;;
11854;SDS011;5987;53.140;8.904;2022-09-09T18:30:17;6.13;;;5.30;;
11854;SDS011;5987;53.140;8.904;2022-09-09T18:33:21;13.60;;;9.17;;
11854;SDS011;5987;53.140;8.904;2022-09-09T18:36:25;8.57;;;7.57;;
11854;SDS011;5987;53.140;8.904;2022-09-09T18:39:33;8.53;;;6.23;;
11854;SDS011;5987;53.140;8.904;2022-09-09T18:42:37;8.60;;;6.27;;
11854;SDS011;5987;53.140;8.904;2022-09-09T18:45:41;6.50;;;5.90;;
11854;SDS011;5987;53.140;8.904;2022-09-09T18:48:45;7.43;;;6.50;;
11854;SDS011;5987;53.140;8.904;2022-09-09T18:51:51;8.83;;;6.60;;
11854;SDS011;5987;53.140;8.904;2022-09-09T18:54:56;10.33;;;6.90;;
11854;SDS011;5987;53.140;8.904;2022-09-09T18:58:00;8.27;;;6.70;;
11854;SDS011;5987;53.140;8.904;2022-09-09T19:01:04;9.77;;;8.37;;
11854;SDS011;5987;53.140;8.904;2022-09-09T19:04:13;23.07;;;15.77;;
11854;SDS011;5987;53.140;8.904;2022-09-09T19:07:17;15.60;;;13.67;;
11854;SDS011;5987;53.140;8.904;2022-09-09T19:10:24;11.00;;;9.90;;
11854;SDS011;5987;53.140;8.904;2022-09-09T19:13:28;12.53;;;11.17;;